Gainesville, FL

3:44 AM EST on November 22, 2014 (GMT -0500)
Suburban Heights | Change Station
CLOSE
Current Station
Personal Weather Station
Location: Gainesville, FL
Elevation: 150 ft
Nearby Weather Stations

Elev 150 ft 29.67 °N, 82.39 °W | Updated 2 minutes ago

Partly Cloudy
Partly Cloudy
52.4 °F
Feels Like 52.4 °F
N
0.0
Wind Variable Wind from West
Gusts 1.0 mph

Today
High -- | Low -- °F
--% Chance of Precip.
Yesterday
High -- | Low -- °F
Precip. -- in
6:59 AM 5:31 PM
Waning Crescent, 0% visible
Pressure 30.28 in
Visibility 10.0 miles
Clouds Few 4200 ft
Scattered Clouds 9500 ft
Dew Point 50 °F
Humidity 92%
Rainfall 0.00 in
Snow Depth Not available.
UV 0 out of 12
Pollen 1.40 out of 12
Air Quality Not available.
Flu Activity Not available.
METAR KGNV 220753Z AUTO 03007KT 10SM FEW042 SCT095 12/10 A3028 RMK AO2 SLP253 T01170100

More Conditions Fewer Conditions

Pressure 30.28 in
Visibility 10.0 miles
Clouds Few 4200 ft
Scattered Clouds 9500 ft
Dew Point 50 °F
Humidity 92%
Rainfall 0.00 in
Snow Depth Not available.
UV 0 out of 12
Pollen 1.40 out of 12
Air Quality Not available.
Flu Activity Not available.
METAR KGNV 220753Z AUTO 03007KT 10SM FEW042 SCT095 12/10 A3028 RMK AO2 SLP253 T01170100

More Conditions Fewer Conditions

10-Day Weather Forecast

Almanac

Astronomy

Nov. 22, 2014 Rise Set
Actual Time
Civil Twilight
Nautical Twilight
Astronomical Twilight
Moon
Length of Visible Light
Length of Day
Tomorrow will be .
, % of the Moon is Illuminated

Today's Extremes

State Highs State Lows

Community

WunderPhotos

Upload Photos

1,772,794 photos uploaded!

WunderBlogs® & News

Nearby

Air Quality

  Air Quality AQ Index Pollutant
Not available.

Snow Depth

Station Depth Elevation

Earthquake Activity

City Distance Mag. Time & Date
Minimum magnitude displayed is 2.5.

Coastal Water Temperatures

Place Temperature

Nearby Weather Stations